• Join FlightAware (Why Join?)
  • Login
  • US Flag 
11:08AM EDT


 

Airport Tracker/Info


-or-


 

Live Flight TrackerFlight Track Log ✈ N12JD ✈ 15-Sep-2013 ✈ KMQY - KUES

Flight Track Log - Related Links

Times and Time Zones

All times are in EDT time to prevent confusion due to time zone crossing. See the N12JD flight status page for this flight to view local times or setup timezone preferences in your user account.

Time Position Orientation Groundspeed Altitude Reporting Facility
EDT Latitude Longitude Course Direction KTS MPH feet Rate Location/Type
01:53PM 35.9833 -86.5167 180° South 126 145 1,500  Level Nashville TRACON
01:54PM 35.9500 -86.5000 158° South 180 207 3,000 660 Climbing Nashville TRACON
01:55PM 35.9833 -86.4500 51° Northeast 235 270 3,000 540 Level Nashville TRACON
01:56PM 36.0500 -86.4167 22° Northeast 218 251 4,200 1,440 Climbing Nashville TRACON
01:57PM 36.0667 -86.4167 360° North 179 206 5,500 1,500 Climbing Nashville TRACON
01:58PM 36.1333 -86.4000 11° North 178 205 7,100 1,200 Climbing Nashville TRACON
01:59PM 36.1833 -86.3833 15° North 182 209 8,300 1,080 Climbing Nashville TRACON
02:00PM 36.2158 -86.3825 North 182 209 8,900 1,260 Climbing Memphis Center
02:01PM 36.2653 -86.3672 14° North 204 235 10,300 1,200 Climbing Memphis Center
02:02PM 36.3131 -86.3597 North 212 244 11,400 1,200 Climbing Memphis Center
02:03PM 36.3692 -86.3594 360° North 199 229 12,700 1,260 Climbing Memphis Center
02:04PM 36.4214 -86.3569 North 193 222 14,000 1,200 Climbing Memphis Center
02:05PM 36.4775 -86.3517 North 193 222 15,200 1,080 Climbing Memphis Center
02:06PM 36.5303 -86.3722 343° North 193 222 16,200 960 Climbing Memphis Center
02:07PM 36.5808 -86.3906 344° North 193 222 17,200 840 Climbing Memphis Center
02:08PM 36.6336 -86.4111 343° North 193 222 17,900 720 Climbing Memphis Center
02:09PM 36.6842 -86.4294 344° North 188 216 18,700 720 Climbing Memphis Center
02:10PM 36.7411 -86.4500 344° North 194 223 19,400 600 Climbing Memphis Center
02:11PM 36.8000 -86.4703 345° North 194 223 20,000 300 Climbing Memphis Center
02:12PM 36.8611 -86.4933 343° North 208 239 20,000  Level Memphis Center
02:13PM 36.9264 -86.5136 346° North 223 257 20,000  Level Memphis Center
02:14PM 36.9919 -86.5414 341° North 239 275 20,000  Level Memphis Center
02:15PM 37.1117 -86.5831 344° North 250 288 20,000  Level Indianapolis Center
02:16PM 37.1792 -86.6089 343° North 250 288 20,000  Level Indianapolis Center
02:17PM 37.2478 -86.6331 344° North 252 290 20,000  Level Indianapolis Center
02:18PM 37.3147 -86.6572 344° North 249 287 20,000  Level Indianapolis Center
02:20PM 37.3814 -86.6819 344° North 247 284 20,000  Level Indianapolis Center
02:21PM 37.4589 -86.7103 344° North 245 282 20,000  Level Indianapolis Center
02:22PM 37.5250 -86.7364 343° North 246 283 20,000  Level Indianapolis Center
02:23PM 37.5847 -86.7589 343° North 248 285 20,000  Level Indianapolis Center
02:24PM 37.6506 -86.7822 344° North 247 284 20,000  Level Indianapolis Center
02:25PM 37.7308 -86.8136 343° North 250 288 20,000  Level Indianapolis Center
02:26PM 37.7969 -86.8378 344° North 248 285 20,000  Level Indianapolis Center
02:27PM 37.8639 -86.8625 344° North 250 288 20,000  Level Indianapolis Center
02:28PM 37.9303 -86.8886 343° North 249 287 20,000  Level Indianapolis Center
02:29PM 37.9975 -86.9128 344° North 250 288 20,000  Level Indianapolis Center
02:30PM 38.0631 -86.9381 343° North 247 284 20,000  Level Indianapolis Center
02:31PM 38.1292 -86.9625 344° North 248 285 20,000  Level Indianapolis Center
02:32PM 38.2086 -86.9925 343° North 248 285 20,000  Level Indianapolis Center
02:33PM 38.2697 -87.0150 344° North 245 282 20,000  Level Indianapolis Center
02:34PM 38.3358 -87.0389 344° North 246 283 20,000  Level Indianapolis Center
02:35PM 38.4017 -87.0658 342° North 248 285 20,000  Level Indianapolis Center
02:36PM 38.4811 -87.0958 344° North 248 285 20,000  Level Indianapolis Center
02:37PM 38.5475 -87.1211 343° North 248 285 20,000  Level Indianapolis Center
02:38PM 38.6131 -87.1464 343° North 246 283 20,000  Level Indianapolis Center
02:39PM 38.6792 -87.1717 343° North 247 284 20,000  Level Indianapolis Center
02:40PM 38.7450 -87.1972 343° North 247 284 20,000  Level Indianapolis Center
02:41PM 38.8103 -87.2214 344° North 245 282 20,000  Level Indianapolis Center
02:42PM 38.8881 -87.2525 343° North 243 280 20,000  Level Indianapolis Center
02:43PM 38.9522 -87.2758 344° North 240 276 20,000  Level Indianapolis Center
02:44PM 39.0161 -87.3011 343° North 240 276 20,000  Level Indianapolis Center
02:45PM 39.0803 -87.3258 343° North 240 276 20,000  Level Indianapolis Center
02:46PM 39.1419 -87.3494 343° North 239 275 20,000  Level Indianapolis Center
02:47PM 39.2047 -87.3733 344° North 238 274 20,000  Level Indianapolis Center
02:48PM 39.2817 -87.4036 343° North 239 275 20,000  Level Indianapolis Center
02:50PM 39.3447 -87.4297 342° North 239 275 20,000  Level Indianapolis Center
02:51PM 39.4078 -87.4528 344° North 237 273 20,000  Level Indianapolis Center
02:52PM 39.4708 -87.4775 343° North 237 273 20,000  Level Indianapolis Center
02:53PM 39.5336 -87.5022 343° North 236 272 20,000  Level Indianapolis Center
02:54PM 39.5975 -87.5286 342° North 239 275 20,000  Level Indianapolis Center
02:55PM 39.6728 -87.5575 344° North 237 273 20,000  Level Indianapolis Center
02:56PM 39.7353 -87.5825 343° North 236 272 20,000  Level Indianapolis Center
02:57PM 39.7981 -87.6058 344° North 234 269 20,000  Level Indianapolis Center
02:58PM 39.8614 -87.6319 342° North 237 273 20,000  Level Indianapolis Center
02:59PM 39.9239 -87.6572 343° North 237 273 20,000  Level Indianapolis Center
03:00PM 39.9883 -87.6831 343° North 240 276 20,000  Level Indianapolis Center
03:01PM 40.0639 -87.7136 343° North 238 274 20,000  Level Indianapolis Center
03:02PM 40.1269 -87.7394 343° North 239 275 20,000  Level Chicago Center
03:03PM 40.1908 -87.7642 344° North 238 274 20,000  Level Chicago Center
03:04PM 40.2586 -87.7911 343° North 238 274 20,000  Level Chicago Center
03:05PM 40.3222 -87.8189 342° North 240 276 20,000  Level Chicago Center
03:06PM 40.3864 -87.8439 343° North 241 277 20,000  Level Chicago Center
03:07PM 40.4497 -87.8697 343° North 241 277 20,000  Level Chicago Center
03:08PM 40.5144 -87.8964 343° North 244 281 20,000  Level Chicago Center
03:09PM 40.5914 -87.9264 344° North 242 278 20,000  Level Chicago Center
03:10PM 40.6553 -87.9528 343° North 241 277 20,000  Level Chicago Center
03:11PM 40.7194 -87.9783 343° North 242 278 20,000  Level Chicago Center
03:12PM 40.7842 -88.0047 343° North 244 281 20,000  Level Chicago Center
03:13PM 40.8492 -88.0317 343° North 247 284 20,000  Level Chicago Center
03:14PM 40.9283 -88.0636 343° North 247 284 20,000  Level Chicago Center
03:15PM 40.9914 -88.0894 343° North 240 276 20,000  Level Chicago Center
03:16PM 41.0536 -88.1150 343° North 234 269 20,000  Level Chicago Center
03:17PM 41.1164 -88.1400 343° North 234 269 20,000  Level Chicago Center
03:18PM 41.1828 -88.1203 13° North 254 292 20,000  Level Chicago Center
03:19PM 41.2636 -88.0789 21° North 260 299 20,000  Level Chicago Center
03:20PM 41.3294 -88.0458 21° North 257 296 20,000  Level Chicago Center
03:22PM 41.4011 -88.0106 20° North 261 300 20,000  Level Chicago Center
03:23PM 41.4611 -87.9794 21° North 264 304 20,000  Level Chicago Center
03:24PM 41.5411 -87.9406 20° North 259 298 20,000  Level Chicago Center
03:25PM 41.6081 -87.9072 20° North 259 298 20,000  Level Chicago Center
03:26PM 41.6753 -87.8736 20° North 259 298 20,000  Level Chicago Center
03:27PM 41.7425 -87.8397 21° North 260 299 20,100  Climbing Chicago Center
03:28PM 41.8097 -87.8044 21° North 260 299 20,000 -60 Descending Chicago Center
03:29PM 41.8919 -87.7636 20° North 265 305 20,000  Level Chicago Center
03:30PM 41.9586 -87.7317 20° North 257 296 20,100 -480 Climbing Chicago Center
03:31PM 42.0253 -87.6847 28° Northeast 272 313 19,100 -1,020 Descending Chicago Center
03:32PM 42.0892 -87.6142 39° Northeast 295 339 18,000 -1,020 Descending Chicago Center
03:33PM 42.1622 -87.5850 16° North 283 326 17,000 -960 Descending Chicago Center
03:34PM 42.2450 -87.5500 17° North 262 302 16,000 -540 Descending Chicago Center
03:35PM 42.3086 -87.5219 18° North 245 282 16,000 -420 Level Chicago Center
03:36PM 42.3767 -87.4944 17° North 254 292 15,200 -960 Descending Chicago Center
03:37PM 42.4544 -87.4583 19° North 293 337 14,100 -780 Descending Chicago Center
03:38PM 42.5289 -87.4256 18° North 286 329 13,600 -900 Descending Chicago Center
03:39PM 42.5897 -87.4592 338° Northwest 239 275 12,300 -1,200 Descending Chicago Center
03:40PM 42.6208 -87.5281 302° West 213 245 11,200 -1,140 Descending Chicago Center
03:41PM 42.6519 -87.5950 302° West 209 241 10,000 -1,200 Descending Chicago Center
03:42PM 42.6808 -87.6608 301° West 206 237 8,800 -1,260 Descending Chicago Center
03:43PM 42.7150 -87.7481 298° West 217 250 7,400 -1,260 Descending Chicago Center
03:44PM 42.7469 -87.8208 301° West 214 246 6,200 -720 Descending Chicago Center
03:45PM 42.7781 -87.8889 302° West 213 245 6,000 -120 Descending Chicago Center
03:46PM 42.8058 -87.9597 298° West 213 245 6,000  Level Chicago Center
03:47PM 42.8317 -88.0328 296° West 215 247 6,000  Level Chicago Center
03:48PM 42.8561 -88.1064 294° West 215 247 6,000 -540 Level Chicago Center
03:49PM 42.8825 -88.1867 294° West 203 234 5,000 -840 Descending Chicago Center
03:51PM 42.9028 -88.2533 293° West 202 232 4,300 -780 Descending Chicago Center
03:52PM 42.9500 -88.3500 304° West 171 197 3,000 -540 Descending KMKE
03:53PM 42.9667 -88.4167 289° West 162 186 3,000  Level KMKE
03:54PM 42.9833 -88.4667 295° West 147 169 3,000  Level KMKE
03:55PM 43.0167 -88.4500 20° North 127 146 3,000  Level KMKE
03:56PM 43.0500 -88.4500 360° North 121 139 3,000  Level KMKE
03:57PM 43.0667 -88.4000 65° Northeast 133 153 3,000 -300 Level KMKE
03:58PM 43.0667 -88.3500 90° East 124 143 2,400 -600 Descending KMKE
03:59PM 43.0500 -88.3167 124° Southeast 129 148 1,800 -600 Descending KMKE
04:00PM 43.0500 -88.2667 90° East 121 139 1,200 -600 Descending KMKE